Tahitian Princess — ZCDD8 — position and weather

sailwx.info

Track history (hours):
 
Tides and Currents Weather Stations Pressure Air Temp Water Temp Dewpoint Dewpoint Depression Visibility Wind Speed Wind Dir Waves Ship Positions

Tahitian Princess

Operator: P & O Irish Sea Ltd

Last reported at 2017-Mar-30 12:31 UTC. Time now 2017-Mar-30 14:35 UTC.
Position N 53°35' W 004°00'.

Length 167 m; draft 5.7 m.

Type: Passenger vessel. MMSI: 310362000.

Date/timePositionNaut miles runAvg speedWind from/ knotsBaromVisibWave heightAir tempDewpointWater temp
2017-Mar-30 12:31N 53°35' W 004°00'1919.2
2017-Mar-30 11:33N 53°33' W 003°29'1616.1
2017-Mar-30 10:33N 53°28' W 003°03'1 1.5
2017-Mar-30 09:33N 53°27' W 003°01'0 0.4
2017-Mar-30 08:33N 53°27' W 003°01'0 0.0
2017-Mar-30 07:33N 53°27' W 003°01'0 0.0
2017-Mar-30 06:33N 53°27' W 003°01'0 0.0
2017-Mar-30 05:33N 53°27' W 003°01'1 0.5
2017-Mar-30 04:33N 53°27' W 003°01'1312.7
2017-Mar-30 03:33N 53°31' W 003°21'1818.2
2017-Mar-30 02:33N 53°33' W 003°52'8 0.6
2017-Mar-29 13:28N 53°35' W 004°04'1921.0
2017-Mar-29 12:33N 53°33' W 003°32'1817.8
2017-Mar-29 11:34N 53°28' W 003°03'2 1.6
2017-Mar-29 10:33N 53°27' W 003°01'0 0.0
2017-Mar-29 09:33N 53°27' W 003°01'0 0.0
2017-Mar-29 08:33N 53°27' W 003°01'0 0.0
2017-Mar-29 07:33N 53°27' W 003°01'0 0.0
2017-Mar-29 06:33N 53°27' W 003°01'1 0.5
2017-Mar-29 05:33N 53°27' W 003°01'2 2.2
2017-Mar-29 04:33N 53°28' W 003°04'1413.5
2017-Mar-29 03:33N 53°31' W 003°26'1818.1
2017-Mar-29 02:33N 53°33' W 003°56'2 0.2
2017-Mar-28 13:16N 53°35' W 003°57'1521.3
2017-Mar-28 12:33N 53°33' W 003°32'1817.5
2017-Mar-28 11:33N 53°28' W 003°04'3 2.7
2017-Mar-28 10:33N 53°26' W 003°01'1 1.0
2017-Mar-28 09:34N 53°27' W 003°01'0 0.2
2017-Mar-28 08:33N 53°27' W 003°01'0 0.0
2017-Mar-28 07:33N 53°27' W 003°01'0 0.0
2017-Mar-28 06:33N 53°27' W 003°01'0 0.4
2017-Mar-28 05:33N 53°27' W 003°01'0 0.5
2017-Mar-28 04:33N 53°27' W 003°02'10 9.9
2017-Mar-28 03:33N 53°31' W 003°17'1313.2
2017-Mar-28 02:33N 53°31' W 003°39'1413.7
2017-Mar-28 01:32N 53°33' W 004°02'7 0.3
2017-Mar-27 00:16N 53°36' W 004°13'1621.8
2017-Mar-26 23:33N 53°34' W 003°47'2020.2
2017-Mar-26 22:33N 53°31' W 003°13'9 9.0
2017-Mar-26 21:33N 53°26' W 003°01'1 1.0
2017-Mar-26 20:33N 53°27' W 003°01'0 0.2
2017-Mar-26 19:33N 53°27' W 003°01'0 0.0
2017-Mar-26 18:33N 53°27' W 003°01'0 0.0
2017-Mar-26 17:33N 53°27' W 003°01'0 0.0
2017-Mar-26 16:33N 53°27' W 003°01'0 0.0
2017-Mar-26 15:33N 53°27' W 003°01'0 0.0
2017-Mar-26 14:33N 53°27' W 003°01'0 0.0
2017-Mar-26 13:32N 53°27' W 003°01'0 0.0
2017-Mar-26 12:33N 53°27' W 003°01'0 0.0
2017-Mar-26 11:33N 53°27' W 003°01'0 0.0
2017-Mar-26 10:33N 53°27' W 003°01'0 0.0
2017-Mar-26 09:32N 53°27' W 003°01'0 0.0
2017-Mar-26 08:33N 53°27' W 003°01'0 0.0
2017-Mar-26 07:33N 53°27' W 003°01'0 0.0
2017-Mar-26 06:33N 53°27' W 003°01'0 0.0
2017-Mar-26 05:33N 53°27' W 003°01'0 0.4
2017-Mar-26 04:33N 53°27' W 003°01'5 5.1
2017-Mar-26 03:33N 53°31' W 003°07'1515.4
2017-Mar-26 02:33N 53°31' W 003°33'1818.5
2017-Mar-26 01:33N 53°33' W 004°04'1817.8
2017-Mar-26 00:33N 53°35' W 004°33'1818.1
2017-Mar-25 23:33N 53°32' W 005°03'2019.6
2017-Mar-25 22:33N 53°26' W 005°35'2019.2
2017-Mar-25 21:31N 53°20' W 006°07'4 0.8
2017-Mar-25 16:34N 53°21' W 005°60'1615.5
2017-Mar-25 15:34N 53°26' W 005°35'1616.4
2017-Mar-25 14:34N 53°31' W 005°09'1717.2
2017-Mar-25 13:34N 53°36' W 004°41'1717.4
2017-Mar-25 12:33N 53°36' W 004°12'1919.5
2017-Mar-25 11:34N 53°34' W 003°39'1918.6
2017-Mar-25 10:33N 53°32' W 003°08'6 5.9
2017-Mar-25 09:33N 53°27' W 003°01'0 0.4
2017-Mar-25 08:33N 53°27' W 003°01'0 0.0
2017-Mar-25 07:33N 53°27' W 003°01'0 0.0
2017-Mar-25 06:33N 53°27' W 003°01'0 0.1
2017-Mar-25 05:33N 53°27' W 003°01'1 0.8
2017-Mar-25 04:33N 53°28' W 003°02'1010.3
2017-Mar-25 03:33N 53°31' W 003°18'1716.7
2017-Mar-25 02:33N 53°31' W 003°47'2317.5
2017-Mar-25 01:13N 53°36' W 004°25'1318.2
2017-Mar-25 00:31N 53°35' W 004°47'1818.6
2017-Mar-24 23:32N 53°30' W 005°16'2019.7
2017-Mar-24 22:33N 53°24' W 005°48'59 6.3
2017-Mar-24 13:09N 53°35' W 004°10'1321.5
2017-Mar-24 12:33N 53°34' W 003°48'2120.8
2017-Mar-24 11:33N 53°31' W 003°14'8 8.4
2017-Mar-24 10:33N 53°27' W 003°01'0 0.4
2017-Mar-24 09:33N 53°27' W 003°01'0 0.0
2017-Mar-24 08:33N 53°27' W 003°01'0 0.0
2017-Mar-24 07:32N 53°27' W 003°01'0 0.0
2017-Mar-24 06:33N 53°27' W 003°01'0 0.0
2017-Mar-24 05:33N 53°27' W 003°01'1 0.6
2017-Mar-24 04:33N 53°27' W 003°01'1211.7
2017-Mar-24 03:33N 53°31' W 003°19'1616.1
2017-Mar-24 02:33N 53°32' W 003°46'14 1.0
2017-Mar-23 12:33N 53°35' W 004°09'1616.3
2017-Mar-23 11:33N 53°33' W 003°42'1817.5
2017-Mar-23 10:33N 53°31' W 003°12'8 7.9
2017-Mar-23 09:33N 53°27' W 003°01'0 0.4
2017-Mar-23 08:33N 53°27' W 003°01'0 0.0
2017-Mar-23 07:33N 53°27' W 003°01'0 0.0
2017-Mar-23 06:33N 53°27' W 003°01'0 0.0
2017-Mar-23 05:33N 53°27' W 003°01'1 0.8
2017-Mar-23 04:33N 53°27' W 003°01'1111.3
2017-Mar-23 03:33N 53°31' W 003°19'1717.2
2017-Mar-23 02:33N 53°31' W 003°48'11 0.8
2017-Mar-22 12:12N 53°36' W 004°04'1218.8
2017-Mar-22 11:33N 53°34' W 003°44'1918.6
2017-Mar-22 10:33N 53°31' W 003°13'8 8.3
2017-Mar-22 09:33N 53°27' W 003°01'0 0.4
2017-Mar-22 08:33N 53°27' W 003°01'0 0.0
2017-Mar-22 07:33N 53°27' W 003°01'0 0.0
2017-Mar-22 06:33N 53°27' W 003°01'0 0.0
2017-Mar-22 05:33N 53°27' W 003°01'1 0.6
2017-Mar-22 04:33N 53°27' W 003°01'1212.0
2017-Mar-22 03:33N 53°32' W 003°20'1616.5
2017-Mar-22 02:33N 53°32' W 003°47'7 0.5
2017-Mar-21 12:32N 53°35' W 003°57'1919.2
2017-Mar-21 11:33N 53°33' W 003°26'1615.6
2017-Mar-21 10:33N 53°27' W 003°02'0 0.4
2017-Mar-21 09:33N 53°27' W 003°01'0 0.4
2017-Mar-21 08:33N 53°27' W 003°01'0 0.0
2017-Mar-21 07:33N 53°27' W 003°01'0 0.0
2017-Mar-21 06:33N 53°27' W 003°01'1 0.6
2017-Mar-21 05:32N 53°27' W 003°01'1211.9
2017-Mar-21 04:33N 53°31' W 003°19'1515.2
2017-Mar-21 03:34N 53°32' W 003°45'1413.8
2017-Mar-21 02:34N 53°33' W 004°08'  
Track history (hours):
 
Tides and Currents Weather Stations Pressure Air Temp Water Temp Dewpoint Dewpoint Depression Visibility Wind Speed Wind Dir Waves Ship Positions

Tahitian Princess

Operator: P & O Irish Sea Ltd

Last reported at 2017-Mar-30 12:31 UTC. Time now 2017-Mar-30 14:35 UTC.
Position N 53°35' W 004°00'.

Length 167 m; draft 5.7 m.

Type: Passenger vessel. MMSI: 310362000.

Date/timePositionNaut miles runAvg speedWind from/ knotsBaromVisibWave heightAir tempDewpointWater temp
2017-Mar-30 12:31N 53°35' W 004°00'1919.2
2017-Mar-30 11:33N 53°33' W 003°29'1616.1
2017-Mar-30 10:33N 53°28' W 003°03'1 1.5
2017-Mar-30 09:33N 53°27' W 003°01'0 0.4
2017-Mar-30 08:33N 53°27' W 003°01'0 0.0
2017-Mar-30 07:33N 53°27' W 003°01'0 0.0
2017-Mar-30 06:33N 53°27' W 003°01'0 0.0
2017-Mar-30 05:33N 53°27' W 003°01'1 0.5
2017-Mar-30 04:33N 53°27' W 003°01'1312.7
2017-Mar-30 03:33N 53°31' W 003°21'1818.2
2017-Mar-30 02:33N 53°33' W 003°52'8 0.6
2017-Mar-29 13:28N 53°35' W 004°04'1921.0
2017-Mar-29 12:33N 53°33' W 003°32'1817.8
2017-Mar-29 11:34N 53°28' W 003°03'2 1.6
2017-Mar-29 10:33N 53°27' W 003°01'0 0.0
2017-Mar-29 09:33N 53°27' W 003°01'0 0.0
2017-Mar-29 08:33N 53°27' W 003°01'0 0.0
2017-Mar-29 07:33N 53°27' W 003°01'0 0.0
2017-Mar-29 06:33N 53°27' W 003°01'1 0.5
2017-Mar-29 05:33N 53°27' W 003°01'2 2.2
2017-Mar-29 04:33N 53°28' W 003°04'1413.5
2017-Mar-29 03:33N 53°31' W 003°26'1818.1
2017-Mar-29 02:33N 53°33' W 003°56'2 0.2
2017-Mar-28 13:16N 53°35' W 003°57'1521.3
2017-Mar-28 12:33N 53°33' W 003°32'1817.5
2017-Mar-28 11:33N 53°28' W 003°04'3 2.7
2017-Mar-28 10:33N 53°26' W 003°01'1 1.0
2017-Mar-28 09:34N 53°27' W 003°01'0 0.2
2017-Mar-28 08:33N 53°27' W 003°01'0 0.0
2017-Mar-28 07:33N 53°27' W 003°01'0 0.0
2017-Mar-28 06:33N 53°27' W 003°01'0 0.4
2017-Mar-28 05:33N 53°27' W 003°01'0 0.5
2017-Mar-28 04:33N 53°27' W 003°02'10 9.9
2017-Mar-28 03:33N 53°31' W 003°17'1313.2
2017-Mar-28 02:33N 53°31' W 003°39'1413.7
2017-Mar-28 01:32N 53°33' W 004°02'7 0.3
2017-Mar-27 00:16N 53°36' W 004°13'1621.8
2017-Mar-26 23:33N 53°34' W 003°47'2020.2
2017-Mar-26 22:33N 53°31' W 003°13'9 9.0
2017-Mar-26 21:33N 53°26' W 003°01'1 1.0
2017-Mar-26 20:33N 53°27' W 003°01'0 0.2
2017-Mar-26 19:33N 53°27' W 003°01'0 0.0
2017-Mar-26 18:33N 53°27' W 003°01'0 0.0
2017-Mar-26 17:33N 53°27' W 003°01'0 0.0
2017-Mar-26 16:33N 53°27' W 003°01'0 0.0
2017-Mar-26 15:33N 53°27' W 003°01'0 0.0
2017-Mar-26 14:33N 53°27' W 003°01'0 0.0
2017-Mar-26 13:32N 53°27' W 003°01'0 0.0
2017-Mar-26 12:33N 53°27' W 003°01'0 0.0
2017-Mar-26 11:33N 53°27' W 003°01'0 0.0
2017-Mar-26 10:33N 53°27' W 003°01'0 0.0
2017-Mar-26 09:32N 53°27' W 003°01'0 0.0
2017-Mar-26 08:33N 53°27' W 003°01'0 0.0
2017-Mar-26 07:33N 53°27' W 003°01'0 0.0
2017-Mar-26 06:33N 53°27' W 003°01'0 0.0
2017-Mar-26 05:33N 53°27' W 003°01'0 0.4
2017-Mar-26 04:33N 53°27' W 003°01'5 5.1
2017-Mar-26 03:33N 53°31' W 003°07'1515.4
2017-Mar-26 02:33N 53°31' W 003°33'1818.5
2017-Mar-26 01:33N 53°33' W 004°04'1817.8
2017-Mar-26 00:33N 53°35' W 004°33'1818.1
2017-Mar-25 23:33N 53°32' W 005°03'2019.6
2017-Mar-25 22:33N 53°26' W 005°35'2019.2
2017-Mar-25 21:31N 53°20' W 006°07'4 0.8
2017-Mar-25 16:34N 53°21' W 005°60'1615.5
2017-Mar-25 15:34N 53°26' W 005°35'1616.4
2017-Mar-25 14:34N 53°31' W 005°09'1717.2
2017-Mar-25 13:34N 53°36' W 004°41'1717.4
2017-Mar-25 12:33N 53°36' W 004°12'1919.5
2017-Mar-25 11:34N 53°34' W 003°39'1918.6
2017-Mar-25 10:33N 53°32' W 003°08'6 5.9
2017-Mar-25 09:33N 53°27' W 003°01'0 0.4
2017-Mar-25 08:33N 53°27' W 003°01'0 0.0
2017-Mar-25 07:33N 53°27' W 003°01'0 0.0
2017-Mar-25 06:33N 53°27' W 003°01'0 0.1
2017-Mar-25 05:33N 53°27' W 003°01'1 0.8
2017-Mar-25 04:33N 53°28' W 003°02'1010.3
2017-Mar-25 03:33N 53°31' W 003°18'1716.7
2017-Mar-25 02:33N 53°31' W 003°47'2317.5
2017-Mar-25 01:13N 53°36' W 004°25'1318.2
2017-Mar-25 00:31N 53°35' W 004°47'1818.6
2017-Mar-24 23:32N 53°30' W 005°16'2019.7
2017-Mar-24 22:33N 53°24' W 005°48'59 6.3
2017-Mar-24 13:09N 53°35' W 004°10'1321.5
2017-Mar-24 12:33N 53°34' W 003°48'2120.8
2017-Mar-24 11:33N 53°31' W 003°14'8 8.4
2017-Mar-24 10:33N 53°27' W 003°01'0 0.4
2017-Mar-24 09:33N 53°27' W 003°01'0 0.0
2017-Mar-24 08:33N 53°27' W 003°01'0 0.0
2017-Mar-24 07:32N 53°27' W 003°01'0 0.0
2017-Mar-24 06:33N 53°27' W 003°01'0 0.0
2017-Mar-24 05:33N 53°27' W 003°01'1 0.6
2017-Mar-24 04:33N 53°27' W 003°01'1211.7
2017-Mar-24 03:33N 53°31' W 003°19'1616.1
2017-Mar-24 02:33N 53°32' W 003°46'14 1.0
2017-Mar-23 12:33N 53°35' W 004°09'1616.3
2017-Mar-23 11:33N 53°33' W 003°42'1817.5
2017-Mar-23 10:33N 53°31' W 003°12'8 7.9
2017-Mar-23 09:33N 53°27' W 003°01'0 0.4
2017-Mar-23 08:33N 53°27' W 003°01'0 0.0
2017-Mar-23 07:33N 53°27' W 003°01'0 0.0
2017-Mar-23 06:33N 53°27' W 003°01'0 0.0
2017-Mar-23 05:33N 53°27' W 003°01'1 0.8
2017-Mar-23 04:33N 53°27' W 003°01'1111.3
2017-Mar-23 03:33N 53°31' W 003°19'1717.2
2017-Mar-23 02:33N 53°31' W 003°48'11 0.8
2017-Mar-22 12:12N 53°36' W 004°04'1218.8
2017-Mar-22 11:33N 53°34' W 003°44'1918.6
2017-Mar-22 10:33N 53°31' W 003°13'8 8.3
2017-Mar-22 09:33N 53°27' W 003°01'0 0.4
2017-Mar-22 08:33N 53°27' W 003°01'0 0.0
2017-Mar-22 07:33N 53°27' W 003°01'0 0.0
2017-Mar-22 06:33N 53°27' W 003°01'0 0.0
2017-Mar-22 05:33N 53°27' W 003°01'1 0.6
2017-Mar-22 04:33N 53°27' W 003°01'1212.0
2017-Mar-22 03:33N 53°32' W 003°20'1616.5
2017-Mar-22 02:33N 53°32' W 003°47'7 0.5
2017-Mar-21 12:32N 53°35' W 003°57'1919.2
2017-Mar-21 11:33N 53°33' W 003°26'1615.6
2017-Mar-21 10:33N 53°27' W 003°02'0 0.4
2017-Mar-21 09:33N 53°27' W 003°01'0 0.4
2017-Mar-21 08:33N 53°27' W 003°01'0 0.0
2017-Mar-21 07:33N 53°27' W 003°01'0 0.0
2017-Mar-21 06:33N 53°27' W 003°01'1 0.6
2017-Mar-21 05:32N 53°27' W 003°01'1211.9
2017-Mar-21 04:33N 53°31' W 003°19'1515.2
2017-Mar-21 03:34N 53°32' W 003°45'1413.8
2017-Mar-21 02:34N 53°33' W 004°08'  

Dump ship's entire track history